Winter Harbour, Canada
Current Conditions -  °F | °C
As of 10:00 AM on Saturday 22 Nov 2014 (Local Time) from CYZT Reporting Station
Broken Clouds Broken Clouds  
Wind Chill: 45°   Ceiling: 9000
Heat Index: 45°   Visibility: 20mi
Dew Point: 41°   Wind: 3mph
Humidity: 87%   Direction: 210°SSW
Pressure: 29.74"   Gusts: NA
Location:  50.52°N, 128.03°W
Report Text: CYZT 221800Z 21003KT 120V280 20SM FEW019 SCT038 BKN090 07/05 A2974 RMK SC1SC3AC1 SLP071
Loading
Personal Weather Stations






























Interactive Weather Map New forecast layout! Learn more

10-Day Weather Forecast

Advertisements
Track Severe Weather on mobile